CAL15 ZBAA-VNKT
Flight info
| Callsign | CAL15 |
|---|---|
| Flight time | N/A |
| Altitude | 30100 |
| Route | PEGSO9Z PEGSO B215 GODON W43 SAVPA W696 MENED W276 ANRUG W279 ONEBA G212 JTG W236 CTU B213 PARGU/K0937S0980 B213 LXA B345 NONIM/N0510F320 B345 KIMTI KMTI1G |
| Aircraft | B77W/H-SDE1E2E3FGHIJ2J3J4J5M1RWXY/LB1D1 |
Departure
| Time | 2026-05-07 14:39 |
|---|---|
| Airport | Beijing Capital International Airport (ZBAA) |
Arrival
| Time | N/A |
|---|---|
| Airport | Tribhuvan International Airport (VNKT) |
| Time | Latitude | Longitude | Altitude | Speed | Heading |
|---|---|---|---|---|---|
| 2026-05-07 13:49 | 40.07344 | 116.60470 | 130 ft | 0 kts | 83° |
| 2026-05-07 14:26 | 40.07344 | 116.60468 | 130 ft | 1 kts | 83° |
| 2026-05-07 14:27 | 40.07341 | 116.60438 | 130 ft | 4 kts | 83° |
| 2026-05-07 14:27 | 40.07338 | 116.60403 | 130 ft | 4 kts | 84° |
| 2026-05-07 14:27 | 40.07339 | 116.60373 | 130 ft | 2 kts | 112° |
| 2026-05-07 14:27 | 40.07349 | 116.60356 | 130 ft | 2 kts | 150° |
| 2026-05-07 14:28 | 40.07371 | 116.60346 | 130 ft | 3 kts | 170° |
| 2026-05-07 14:28 | 40.07397 | 116.60342 | 130 ft | 2 kts | 173° |
| 2026-05-07 14:28 | 40.07400 | 116.60341 | 130 ft | 0 kts | 173° |
| 2026-05-07 14:33 | 40.07396 | 116.60342 | 130 ft | 2 kts | 173° |
| 2026-05-07 14:33 | 40.07355 | 116.60332 | 130 ft | 8 kts | 217° |
| 2026-05-07 14:33 | 40.07330 | 116.60239 | 130 ft | 13 kts | 262° |
| 2026-05-07 14:33 | 40.07318 | 116.60122 | 130 ft | 12 kts | 264° |
| 2026-05-07 14:34 | 40.07310 | 116.60023 | 130 ft | 8 kts | 258° |
| 2026-05-07 14:34 | 40.07265 | 116.59981 | 130 ft | 10 kts | 184° |
| 2026-05-07 14:34 | 40.07167 | 116.59994 | 130 ft | 17 kts | 173° |
| 2026-05-07 14:34 | 40.07034 | 116.60014 | 130 ft | 20 kts | 174° |
| 2026-05-07 14:35 | 40.06883 | 116.60038 | 130 ft | 22 kts | 173° |
| 2026-05-07 14:35 | 40.06724 | 116.60066 | 130 ft | 23 kts | 173° |
| 2026-05-07 14:35 | 40.06556 | 116.60091 | 130 ft | 24 kts | 174° |
| 2026-05-07 14:35 | 40.06377 | 116.60117 | 130 ft | 26 kts | 173° |
| 2026-05-07 14:36 | 40.06202 | 116.60145 | 130 ft | 25 kts | 173° |
| 2026-05-07 14:36 | 40.06027 | 116.60171 | 130 ft | 25 kts | 173° |
| 2026-05-07 14:36 | 40.05853 | 116.60201 | 130 ft | 25 kts | 174° |
| 2026-05-07 14:36 | 40.05694 | 116.60224 | 130 ft | 14 kts | 173° |
| 2026-05-07 14:37 | 40.05644 | 116.60219 | 130 ft | 5 kts | 221° |
| 2026-05-07 14:37 | 40.05619 | 116.60058 | 129 ft | 9 kts | 266° |
| 2026-05-07 14:37 | 40.05652 | 116.60001 | 129 ft | 9 kts | 339° |
| 2026-05-07 14:38 | 40.05722 | 116.59985 | 129 ft | 11 kts | 353° |
| 2026-05-07 14:38 | 40.05922 | 116.59954 | 129 ft | 58 kts | 353° |
| 2026-05-07 14:38 | 40.06555 | 116.59853 | 130 ft | 121 kts | 353° |
| 2026-05-07 14:38 | 40.07590 | 116.59694 | 150 ft | 172 kts | 352° |
| 2026-05-07 14:39 | 40.08811 | 116.59507 | 615 ft | 182 kts | 353° |
| 2026-05-07 14:39 | 40.10099 | 116.59315 | 1353 ft | 188 kts | 353° |
| 2026-05-07 14:39 | 40.11390 | 116.59126 | 2125 ft | 187 kts | 353° |
| 2026-05-07 14:39 | 40.12732 | 116.58935 | 2389 ft | 205 kts | 353° |
| 2026-05-07 14:40 | 40.14211 | 116.58688 | 2729 ft | 221 kts | 352° |
| 2026-05-07 14:40 | 40.15785 | 116.58415 | 3080 ft | 237 kts | 352° |
| 2026-05-07 14:40 | 40.17466 | 116.58144 | 3515 ft | 250 kts | 353° |
| 2026-05-07 14:40 | 40.19179 | 116.57873 | 4228 ft | 250 kts | 353° |
| 2026-05-07 14:41 | 40.20909 | 116.57601 | 4936 ft | 251 kts | 352° |
| 2026-05-07 14:41 | 40.22625 | 116.57330 | 5627 ft | 252 kts | 352° |
| 2026-05-07 14:41 | 40.24349 | 116.56975 | 6273 ft | 253 kts | 342° |
| 2026-05-07 14:41 | 40.25887 | 116.55904 | 6917 ft | 254 kts | 323° |
| 2026-05-07 14:42 | 40.27242 | 116.54407 | 7575 ft | 255 kts | 320° |
| 2026-05-07 14:42 | 40.28564 | 116.52871 | 8211 ft | 256 kts | 320° |
| 2026-05-07 14:42 | 40.29897 | 116.51318 | 8854 ft | 257 kts | 320° |
| 2026-05-07 14:42 | 40.31050 | 116.49509 | 9423 ft | 263 kts | 301° |
| 2026-05-07 14:43 | 40.31601 | 116.47206 | 9981 ft | 271 kts | 281° |
| 2026-05-07 14:43 | 40.31676 | 116.44707 | 10382 ft | 282 kts | 276° |
| 2026-05-07 14:43 | 40.31675 | 116.42073 | 10600 ft | 299 kts | 275° |
| 2026-05-07 14:43 | 40.31669 | 116.39304 | 10794 ft | 316 kts | 275° |
| 2026-05-07 14:44 | 40.31667 | 116.36336 | 11072 ft | 331 kts | 275° |
| 2026-05-07 14:44 | 40.31666 | 116.33292 | 11318 ft | 346 kts | 274° |
| 2026-05-07 14:44 | 40.31665 | 116.30085 | 11761 ft | 356 kts | 274° |
| 2026-05-07 14:44 | 40.31662 | 116.26837 | 12411 ft | 360 kts | 274° |
| 2026-05-07 14:45 | 40.31658 | 116.23571 | 13166 ft | 363 kts | 274° |
| 2026-05-07 14:45 | 40.31654 | 116.20247 | 13900 ft | 367 kts | 275° |
| 2026-05-07 14:45 | 40.31649 | 116.16917 | 14667 ft | 371 kts | 275° |
| 2026-05-07 14:45 | 40.31643 | 116.13526 | 15482 ft | 375 kts | 275° |
| 2026-05-07 14:46 | 40.31636 | 116.10154 | 16360 ft | 378 kts | 275° |
| 2026-05-07 14:46 | 40.31543 | 116.06708 | 17216 ft | 384 kts | 269° |
| 2026-05-07 14:46 | 40.31055 | 116.03256 | 17968 ft | 394 kts | 260° |
| 2026-05-07 14:46 | 40.30112 | 115.99850 | 18730 ft | 405 kts | 251° |
| 2026-05-07 14:47 | 40.28700 | 115.96605 | 19507 ft | 415 kts | 241° |
| 2026-05-07 14:47 | 40.26836 | 115.93665 | 20291 ft | 425 kts | 231° |
| 2026-05-07 14:47 | 40.24576 | 115.91166 | 20983 ft | 437 kts | 221° |
| 2026-05-07 14:47 | 40.21928 | 115.89159 | 21667 ft | 448 kts | 212° |
| 2026-05-07 14:48 | 40.19101 | 115.87357 | 22306 ft | 453 kts | 212° |
| 2026-05-07 14:48 | 40.16272 | 115.85546 | 22983 ft | 457 kts | 212° |
| 2026-05-07 14:48 | 40.13430 | 115.83699 | 23655 ft | 460 kts | 213° |
| 2026-05-07 14:48 | 40.10552 | 115.81806 | 24244 ft | 464 kts | 214° |
| 2026-05-07 14:49 | 40.07673 | 115.79899 | 24821 ft | 469 kts | 214° |
| 2026-05-07 14:49 | 40.04752 | 115.77955 | 25361 ft | 473 kts | 214° |
| 2026-05-07 14:49 | 40.01837 | 115.76009 | 25939 ft | 476 kts | 214° |
| 2026-05-07 14:49 | 39.98858 | 115.74015 | 26540 ft | 478 kts | 215° |
| 2026-05-07 14:50 | 39.95915 | 115.72044 | 27047 ft | 482 kts | 215° |
| 2026-05-07 14:50 | 39.92913 | 115.70031 | 27576 ft | 486 kts | 216° |
| 2026-05-07 14:50 | 39.89867 | 115.68172 | 28039 ft | 497 kts | 209° |
| 2026-05-07 14:50 | 39.86508 | 115.66833 | 28470 ft | 511 kts | 200° |
| 2026-05-07 14:51 | 39.82887 | 115.66119 | 28881 ft | 525 kts | 191° |
| 2026-05-07 14:51 | 39.78841 | 115.66132 | 29371 ft | 537 kts | 180° |
| 2026-05-07 14:51 | 39.74787 | 115.67013 | 29966 ft | 545 kts | 170° |
| 2026-05-07 14:51 | 39.70712 | 115.68671 | 30264 ft | 550 kts | 165° |
| 2026-05-07 14:52 | 39.63048 | 115.72063 | 30248 ft | 541 kts | 166° |
| 2026-05-07 14:52 | 39.55319 | 115.75337 | 30250 ft | 543 kts | 167° |
| 2026-05-07 14:53 | 39.47823 | 115.78420 | 30259 ft | 539 kts | 167° |
| 2026-05-07 14:53 | 39.40315 | 115.81453 | 30244 ft | 540 kts | 168° |
| 2026-05-07 14:54 | 39.32166 | 115.84411 | 30245 ft | 534 kts | 176° |
| 2026-05-07 14:54 | 39.24652 | 115.84660 | 30245 ft | 513 kts | 195° |
| 2026-05-07 14:55 | 39.20907 | 115.83673 | 30237 ft | 500 kts | 205° |
| 2026-05-07 14:55 | 39.17358 | 115.81931 | 30238 ft | 486 kts | 215° |
| 2026-05-07 14:55 | 39.14307 | 115.79668 | 30239 ft | 475 kts | 224° |
| 2026-05-07 14:55 | 39.11737 | 115.77042 | 30240 ft | 462 kts | 232° |
| 2026-05-07 14:56 | 39.06942 | 115.70386 | 30241 ft | 454 kts | 238° |
| 2026-05-07 14:56 | 39.02320 | 115.63311 | 30248 ft | 450 kts | 240° |
| 2026-05-07 14:57 | 38.98136 | 115.56472 | 30243 ft | 446 kts | 242° |
| 2026-05-07 14:57 | 38.94509 | 115.50045 | 30241 ft | 437 kts | 249° |
| 2026-05-07 14:58 | 38.91784 | 115.42747 | 30237 ft | 430 kts | 254° |
| 2026-05-07 14:58 | 38.88980 | 115.34795 | 30234 ft | 427 kts | 253° |
| 2026-05-07 14:59 | 38.86247 | 115.27032 | 30269 ft | 430 kts | 253° |
| 2026-05-07 14:59 | 38.83669 | 115.19731 | 30257 ft | 427 kts | 253° |
| 2026-05-07 15:00 | 38.80898 | 115.11888 | 30265 ft | 430 kts | 253° |
| 2026-05-07 15:00 | 38.78317 | 115.04604 | 30252 ft | 430 kts | 253° |
| 2026-05-07 15:01 | 38.75834 | 114.97614 | 30273 ft | 429 kts | 253° |
| 2026-05-07 15:01 | 38.73288 | 114.90447 | 30258 ft | 429 kts | 253° |
| 2026-05-07 15:02 | 38.70619 | 114.82958 | 30262 ft | 425 kts | 253° |
| 2026-05-07 15:02 | 38.67856 | 114.75216 | 30274 ft | 427 kts | 253° |
| 2026-05-07 15:03 | 38.65060 | 114.67406 | 30281 ft | 427 kts | 253° |
| 2026-05-07 15:03 | 38.62376 | 114.59927 | 30284 ft | 426 kts | 253° |
| 2026-05-07 15:04 | 38.59782 | 114.52776 | 30276 ft | 428 kts | 253° |
| 2026-05-07 15:04 | 38.56903 | 114.44836 | 30294 ft | 426 kts | 253° |
| 2026-05-07 15:05 | 38.54030 | 114.36910 | 30290 ft | 425 kts | 253° |
| 2026-05-07 15:05 | 38.51152 | 114.28991 | 30299 ft | 426 kts | 252° |
| 2026-05-07 15:06 | 38.48313 | 114.21200 | 30305 ft | 428 kts | 253° |
| 2026-05-07 15:06 | 38.45446 | 114.13359 | 30311 ft | 425 kts | 253° |
| 2026-05-07 15:07 | 38.42612 | 114.05624 | 30307 ft | 423 kts | 253° |
| 2026-05-07 15:07 | 38.39746 | 113.97810 | 30308 ft | 426 kts | 253° |
| 2026-05-07 15:08 | 38.37177 | 113.90826 | 30305 ft | 421 kts | 253° |
| 2026-05-07 15:08 | 38.34514 | 113.83596 | 30303 ft | 422 kts | 253° |
| 2026-05-07 15:09 | 38.31710 | 113.76105 | 30313 ft | 419 kts | 252° |
| 2026-05-07 15:09 | 38.28789 | 113.68365 | 30328 ft | 421 kts | 253° |
| 2026-05-07 15:10 | 38.26129 | 113.61338 | 30329 ft | 417 kts | 253° |
| 2026-05-07 15:10 | 38.23356 | 113.54013 | 30331 ft | 418 kts | 253° |
| 2026-05-07 15:11 | 38.20707 | 113.47034 | 30332 ft | 422 kts | 252° |
| 2026-05-07 15:11 | 38.17917 | 113.39713 | 30338 ft | 417 kts | 252° |
| 2026-05-07 15:12 | 38.15109 | 113.32283 | 30362 ft | 415 kts | 252° |
| 2026-05-07 15:12 | 38.12273 | 113.24658 | 30373 ft | 416 kts | 253° |
| 2026-05-07 15:13 | 38.09438 | 113.17065 | 30364 ft | 413 kts | 253° |
| 2026-05-07 15:13 | 38.06611 | 113.09515 | 30375 ft | 413 kts | 253° |
| 2026-05-07 15:14 | 38.04164 | 113.03000 | 30371 ft | 410 kts | 253° |
| 2026-05-07 15:14 | 38.01706 | 112.96461 | 30384 ft | 412 kts | 253° |
| 2026-05-07 15:15 | 37.99038 | 112.89387 | 30380 ft | 413 kts | 253° |
| 2026-05-07 15:15 | 37.96556 | 112.82822 | 30370 ft | 411 kts | 253° |
| 2026-05-07 15:16 | 37.93730 | 112.75362 | 30367 ft | 411 kts | 252° |
| 2026-05-07 15:16 | 37.90911 | 112.67937 | 30356 ft | 412 kts | 253° |
| 2026-05-07 15:17 | 37.88046 | 112.60409 | 30329 ft | 414 kts | 253° |
| 2026-05-07 15:17 | 37.85095 | 112.53170 | 30333 ft | 418 kts | 251° |
| 2026-05-07 15:18 | 37.82355 | 112.46751 | 30323 ft | 413 kts | 251° |
| 2026-05-07 15:18 | 37.79536 | 112.40124 | 30337 ft | 414 kts | 251° |
| 2026-05-07 15:19 | 37.76526 | 112.32960 | 30356 ft | 412 kts | 252° |